Terminal Aerodrome Forecast
Issued by NWS Cleveland, OH

Home | Current Version | Previous Version | Graphics & Text | Print | Product List | Glossary On
Versions: 1 2 3 4 5 6 7 8 9 10 11 12 13 14 15 16 17 18 19 20 21 22 23 24 25
000
FTUS41 KCLE 160529
TAFCLE
TAF
KCLE 160529Z 1606/1712 VRB03KT P6SM FEW250
     FM161600 36009KT P6SM SCT050
     FM162100 01010KT P6SM FEW200
     FM170000 04006KT P6SM FEW250
     FM170800 13006KT P6SM BKN120=

USA.gov is the U.S. government's official web portal to all federal, state and local government web resources and services.